Time;durP1;ratioP1;P1;durP2;ratioP2;P2;SDS_P1;SDS_P2;PMS_P1;PMS_P2;Temp;Humidity;BMP_temperature;BMP_pressure;BME280_temperature;BME280_humidity;BME280_pressure;Samples;Min_cycle;Max_cycle;Signal;HPM_P1;HPM_P2
2024/01/28 00:02:05;;;;;;;18.10;7.20;;;3.40;74.60;;;;;;6228918;28;20343;-82
2024/01/28 00:05:09;;;;;;;14.43;6.20;;;3.30;74.60;;;;;;6187337;28;20235;-82
2024/01/28 00:08:12;;;;;;;18.03;7.10;;;3.30;74.80;;;;;;6212574;28;20587;-83
2024/01/28 00:11:17;;;;;;;11.00;6.50;;;3.30;74.80;;;;;;6237867;28;20231;-81
2024/01/28 00:14:20;;;;;;;11.97;6.30;;;3.30;74.70;;;;;;6235924;28;20246;-83
2024/01/28 00:17:23;;;;;;;11.33;5.93;;;3.30;74.80;;;;;;6233746;28;20625;-82
2024/01/28 00:20:28;;;;;;;15.20;6.87;;;3.30;74.90;;;;;;6239337;28;20242;-82
2024/01/28 00:23:32;;;;;;;17.43;6.83;;;3.30;74.60;;;;;;6229601;28;20235;-80
2024/01/28 00:26:41;;;;;;;20.40;7.07;;;3.30;74.60;;;;;;6233773;28;20323;-83
2024/01/28 00:29:44;;;;;;;14.77;6.43;;;3.30;74.40;;;;;;6237065;28;20223;-82
2024/01/28 00:32:48;;;;;;;8.50;6.40;;;3.30;74.40;;;;;;6231969;28;20411;-82
2024/01/28 00:35:51;;;;;;;15.33;7.10;;;3.30;74.50;;;;;;6234338;28;20254;-81
2024/01/28 00:38:54;;;;;;;13.13;6.77;;;3.30;74.60;;;;;;6235277;28;21058;-81
2024/01/28 00:41:59;;;;;;;10.33;6.17;;;3.30;74.50;;;;;;6232841;28;20242;-82
2024/01/28 00:45:03;;;;;;;10.50;6.67;;;3.20;74.50;;;;;;6232376;28;20329;-82
2024/01/28 00:48:06;;;;;;;15.40;6.70;;;3.10;74.70;;;;;;6219351;28;20238;-83
2024/01/28 00:51:09;;;;;;;10.73;6.00;;;3.10;75.00;;;;;;6233581;28;20288;-81
2024/01/28 00:54:15;;;;;;;18.93;6.90;;;3.10;75.00;;;;;;6221533;28;20271;-82
2024/01/28 00:57:20;;;;;;;11.73;7.00;;;3.00;74.90;;;;;;6225142;28;20270;-79
2024/01/28 01:00:25;;;;;;;18.70;6.83;;;3.00;75.00;;;;;;6218067;28;20254;-82
2024/01/28 01:03:30;;;;;;;14.67;6.83;;;3.00;75.10;;;;;;6225556;28;20226;-82
2024/01/28 01:06:33;;;;;;;11.83;7.63;;;3.00;74.90;;;;;;6225796;28;20230;-82
2024/01/28 01:09:36;;;;;;;9.93;6.47;;;2.90;75.00;;;;;;6239687;28;20235;-82
2024/01/28 01:12:41;;;;;;;12.90;7.10;;;2.90;75.10;;;;;;6219663;28;20241;-81
2024/01/28 01:15:45;;;;;;;14.70;6.83;;;2.80;75.20;;;;;;6233255;28;20227;-82
2024/01/28 01:18:50;;;;;;;10.03;6.67;;;2.80;75.50;;;;;;6234987;28;20911;-83
2024/01/28 01:21:53;;;;;;;10.03;6.67;;;2.70;75.50;;;;;;6236329;28;20234;-82
2024/01/28 01:24:56;;;;;;;9.37;6.17;;;2.70;75.70;;;;;;6238461;28;20246;-82
2024/01/28 01:28:01;;;;;;;12.37;7.63;;;2.70;75.60;;;;;;6232104;28;20735;-81
2024/01/28 01:31:04;;;;;;;13.60;7.03;;;2.70;75.70;;;;;;6229736;28;20420;-81
2024/01/28 01:34:08;;;;;;;13.77;7.03;;;2.70;75.80;;;;;;6229418;28;20273;-81
2024/01/28 01:37:11;;;;;;;10.73;6.23;;;2.70;75.60;;;;;;6237389;28;20239;-81
2024/01/28 01:40:15;;;;;;;10.87;6.73;;;2.70;75.50;;;;;;6217923;28;20235;-82
2024/01/28 01:43:21;;;;;;;11.90;7.10;;;2.70;75.70;;;;;;6239202;28;20234;-82
2024/01/28 01:46:25;;;;;;;15.50;6.87;;;2.70;75.70;;;;;;6237806;28;20382;-82
2024/01/28 01:49:28;;;;;;;12.30;7.20;;;2.70;75.60;;;;;;6229597;28;20627;-83
2024/01/28 01:52:32;;;;;;;9.67;6.50;;;2.70;75.50;;;;;;6233045;28;20313;-82
2024/01/28 01:55:37;;;;;;;7.70;5.80;;;2.50;75.40;;;;;;6237166;28;20242;-80
2024/01/28 01:58:46;;;;;;;7.50;5.87;;;2.50;75.50;;;;;;6238959;28;20258;-81
2024/01/28 02:01:52;;;;;;;8.13;5.80;;;2.50;75.50;;;;;;6228925;28;20243;-81
2024/01/28 02:04:56;;;;;;;7.87;5.70;;;2.40;75.50;;;;;;6237033;28;20245;-82
2024/01/28 02:08:00;;;;;;;10.83;6.60;;;2.40;75.60;;;;;;6228178;28;20245;-83
2024/01/28 02:11:06;;;;;;;13.00;6.40;;;2.30;75.70;;;;;;6236079;28;20235;-82
2024/01/28 02:14:23;;;;;;;7.23;6.40;;;2.20;75.70;;;;;;6228167;28;20704;-81
2024/01/28 02:17:26;;;;;;;8.67;6.90;;;2.20;75.80;;;;;;6236491;28;20235;-84
2024/01/28 02:20:29;;;;;;;6.90;6.30;;;2.10;75.90;;;;;;6232817;28;20246;-82
2024/01/28 02:23:33;;;;;;;15.33;6.70;;;2.10;76.10;;;;;;6237794;28;20853;-84
2024/01/28 02:26:36;;;;;;;8.10;6.67;;;2.10;76.20;;;;;;6237558;28;20871;-82
2024/01/28 02:29:39;;;;;;;10.50;7.17;;;2.00;76.30;;;;;;6237174;28;20238;-81
2024/01/28 02:32:48;;;;;;;9.23;6.40;;;1.90;76.40;;;;;;6237427;28;20234;-84
2024/01/28 02:35:52;;;;;;;10.77;6.50;;;1.90;76.40;;;;;;6234215;28;20749;-81
2024/01/28 02:38:58;;;;;;;8.60;6.83;;;1.90;76.50;;;;;;6238053;28;20234;-83
2024/01/28 02:42:01;;;;;;;11.23;7.77;;;1.80;76.60;;;;;;6238350;28;20383;-82
2024/01/28 02:45:06;;;;;;;9.03;6.67;;;1.80;76.60;;;;;;6236196;28;20854;-82
2024/01/28 02:48:09;;;;;;;11.10;6.83;;;1.80;76.80;;;;;;6236144;28;20238;-79
2024/01/28 02:51:13;;;;;;;8.67;6.57;;;1.70;76.80;;;;;;6227900;28;20285;-83
2024/01/28 02:54:18;;;;;;;7.67;6.97;;;1.70;76.80;;;;;;6226462;28;20818;-82
2024/01/28 02:57:21;;;;;;;10.70;7.30;;;1.60;76.90;;;;;;6239078;28;20231;-84
2024/01/28 03:00:24;;;;;;;9.67;7.37;;;1.60;77.00;;;;;;6237787;28;20226;-84
2024/01/28 03:03:28;;;;;;;12.90;8.00;;;1.60;77.10;;;;;;6224525;28;20241;-81
2024/01/28 03:06:31;;;;;;;9.30;7.43;;;1.60;77.30;;;;;;6222536;28;21022;-84
2024/01/28 03:09:36;;;;;;;8.20;7.13;;;1.50;77.30;;;;;;6237547;28;20788;-84
2024/01/28 03:12:39;;;;;;;12.90;7.40;;;1.50;77.30;;;;;;6229978;28;20254;-81
2024/01/28 03:15:42;;;;;;;9.80;7.90;;;1.40;77.40;;;;;;6231962;28;20734;-83
2024/01/28 03:18:46;;;;;;;7.83;7.03;;;1.40;77.50;;;;;;6243377;28;20234;-82
2024/01/28 03:21:49;;;;;;;9.17;8.00;;;1.40;77.60;;;;;;6233667;28;20308;-83
2024/01/28 03:24:54;;;;;;;11.13;8.07;;;1.40;77.70;;;;;;6233261;28;20741;-84
2024/01/28 03:27:58;;;;;;;14.73;8.57;;;1.40;77.80;;;;;;6233369;28;20262;-83
2024/01/28 03:31:01;;;;;;;12.63;9.17;;;1.40;77.90;;;;;;6231717;28;20254;-82
2024/01/28 03:34:04;;;;;;;18.27;8.80;;;1.40;78.10;;;;;;6232312;28;20238;-80
2024/01/28 03:37:08;;;;;;;14.07;8.07;;;1.50;78.40;;;;;;6221558;28;20788;-83
2024/01/28 03:40:13;;;;;;;9.80;8.03;;;1.40;78.30;;;;;;6234260;28;20242;-82
2024/01/28 03:43:16;;;;;;;13.77;8.10;;;1.40;78.30;;;;;;6228816;28;20235;-82
2024/01/28 03:46:19;;;;;;;15.30;8.40;;;1.50;78.80;;;;;;6232384;28;20266;-82
2024/01/28 03:49:22;;;;;;;16.47;8.17;;;1.60;78.60;;;;;;6231715;28;20243;-80
2024/01/28 03:52:26;;;;;;;10.67;8.30;;;1.50;78.60;;;;;;6231111;28;20242;-83
2024/01/28 03:55:30;;;;;;;15.40;7.80;;;1.50;78.60;;;;;;6230386;28;20758;-81
2024/01/28 03:58:33;;;;;;;10.33;7.53;;;1.40;78.60;;;;;;6205800;28;20915;-82
2024/01/28 04:01:37;;;;;;;9.97;7.13;;;1.40;78.70;;;;;;6207758;28;20231;-85
2024/01/28 04:04:40;;;;;;;8.33;7.60;;;1.30;78.70;;;;;;6206463;28;20241;-81
2024/01/28 04:07:43;;;;;;;10.67;8.50;;;1.20;78.70;;;;;;6211298;28;20223;-82
2024/01/28 04:10:47;;;;;;;10.63;7.47;;;1.20;78.90;;;;;;6211488;28;20704;-83
2024/01/28 04:13:51;;;;;;;10.17;8.33;;;1.10;78.90;;;;;;6206553;28;20235;-84
2024/01/28 04:16:54;;;;;;;15.47;8.50;;;1.10;79.00;;;;;;6207291;28;20319;-80
2024/01/28 04:19:57;;;;;;;12.80;8.03;;;1.00;79.00;;;;;;6207393;28;20239;-82
2024/01/28 04:23:00;;;;;;;15.63;8.07;;;1.00;79.00;;;;;;6208354;28;20234;-80
2024/01/28 04:26:10;;;;;;;13.53;8.43;;;1.00;79.00;;;;;;6208080;28;20240;-82
2024/01/28 04:29:14;;;;;;;12.43;8.13;;;1.00;79.00;;;;;;6207756;28;20323;-83
2024/01/28 04:32:17;;;;;;;12.30;8.20;;;1.00;79.00;;;;;;6196842;28;20385;-82
2024/01/28 04:35:21;;;;;;;13.47;8.17;;;0.90;79.10;;;;;;6222537;28;20242;-80
2024/01/28 04:38:24;;;;;;;14.67;9.63;;;0.80;79.10;;;;;;6231154;28;20242;-82
2024/01/28 04:41:29;;;;;;;12.00;9.90;;;0.80;79.40;;;;;;6214054;28;20614;-81
2024/01/28 04:44:32;;;;;;;19.90;10.73;;;0.80;79.40;;;;;;6236290;28;20312;-81
2024/01/28 04:47:37;;;;;;;16.93;9.80;;;0.80;79.60;;;;;;6227996;28;20235;-82
2024/01/28 04:50:42;;;;;;;13.00;8.70;;;0.80;79.70;;;;;;6184619;28;20242;-80
2024/01/28 04:53:48;;;;;;;15.77;8.37;;;0.90;79.80;;;;;;6215442;28;20231;-82
2024/01/28 04:56:52;;;;;;;14.50;8.20;;;1.00;79.60;;;;;;6234162;28;20331;-82
2024/01/28 04:59:56;;;;;;;15.20;7.50;;;1.00;79.40;;;;;;6235216;28;20258;-83
2024/01/28 05:02:59;;;;;;;16.07;7.77;;;0.90;79.20;;;;;;6236471;28;20239;-83
2024/01/28 05:06:04;;;;;;;18.17;8.17;;;0.80;79.10;;;;;;6235725;28;20400;-82
2024/01/28 05:09:09;;;;;;;10.03;7.93;;;0.80;79.10;;;;;;6239294;28;20238;-81
2024/01/28 05:12:14;;;;;;;12.67;7.80;;;0.80;79.10;;;;;;6239377;28;20239;-82
2024/01/28 05:15:20;;;;;;;10.27;7.00;;;0.70;79.20;;;;;;6226142;28;20253;-83
2024/01/28 05:18:23;;;;;;;10.73;7.80;;;0.60;79.20;;;;;;6231692;28;20322;-81
2024/01/28 05:21:27;;;;;;;16.07;9.43;;;0.50;79.30;;;;;;6237606;28;20235;-81
2024/01/28 05:24:31;;;;;;;15.40;9.43;;;0.50;79.60;;;;;;6237475;28;20772;-82
2024/01/28 05:27:36;;;;;;;15.17;9.00;;;0.40;79.70;;;;;;6221197;28;20758;-82
2024/01/28 05:30:39;;;;;;;16.60;9.67;;;0.30;80.20;;;;;;6246409;28;20396;-81
2024/01/28 05:33:42;;;;;;;18.80;10.57;;;0.30;80.20;;;;;;6232542;28;20230;-81
2024/01/28 05:36:49;;;;;;;13.00;8.90;;;0.20;80.30;;;;;;6235278;28;20234;-81
2024/01/28 05:39:52;;;;;;;10.57;8.03;;;0.20;80.30;;;;;;6238996;28;21012;-82
2024/01/28 05:42:57;;;;;;;8.20;7.40;;;0.30;80.10;;;;;;6237497;28;20329;-82
2024/01/28 05:46:04;;;;;;;12.30;8.47;;;0.30;80.10;;;;;;6233825;28;20235;-82
2024/01/28 05:49:11;;;;;;;10.53;7.83;;;0.30;80.00;;;;;;6238355;28;21011;-82
2024/01/28 05:52:15;;;;;;;12.83;9.27;;;0.20;80.00;;;;;;6237632;28;20614;-82
2024/01/28 05:55:18;;;;;;;13.50;9.90;;;0.20;80.20;;;;;;6230302;28;20249;-81
2024/01/28 05:58:24;;;;;;;12.93;9.63;;;0.20;80.10;;;;;;6236605;28;20289;-79
2024/01/28 06:01:27;;;;;;;14.30;8.97;;;0.20;80.10;;;;;;6228767;28;20908;-78
2024/01/28 06:04:30;;;;;;;16.80;9.03;;;0.20;80.20;;;;;;6236195;28;20874;-79
2024/01/28 06:07:33;;;;;;;15.90;8.63;;;0.00;80.10;;;;;;6234160;28;20233;-81
2024/01/28 06:10:36;;;;;;;15.80;8.63;;;0.00;80.30;;;;;;6238784;28;20234;-82
2024/01/28 06:13:41;;;;;;;10.77;7.63;;;0.00;80.40;;;;;;6239277;28;20762;-83
2024/01/28 06:16:44;;;;;;;17.93;8.27;;;0.00;80.40;;;;;;6235221;28;20246;-79
2024/01/28 06:19:48;;;;;;;11.03;8.47;;;0.00;80.30;;;;;;6235860;28;20321;-81
2024/01/28 06:22:51;;;;;;;10.70;8.20;;;0.00;80.40;;;;;;6237268;28;20715;-80
2024/01/28 06:25:54;;;;;;;13.33;7.57;;;0.10;80.10;;;;;;6233139;28;20315;-81
2024/01/28 06:28:59;;;;;;;17.47;8.33;;;0.00;80.10;;;;;;6235833;28;20273;-81
2024/01/28 06:32:02;;;;;;;18.00;9.03;;;0.00;80.50;;;;;;6236456;28;20226;-80
2024/01/28 06:35:07;;;;;;;10.70;8.10;;;0.00;80.40;;;;;;6232638;28;20315;-81
2024/01/28 06:38:10;;;;;;;8.00;7.00;;;0.00;80.40;;;;;;6238186;28;20241;-79
2024/01/28 06:41:13;;;;;;;13.03;8.60;;;0.00;80.40;;;;;;6245824;28;20257;-78
2024/01/28 06:44:18;;;;;;;23.17;10.00;;;0.00;80.40;;;;;;6246119;28;20238;-80
2024/01/28 06:47:21;;;;;;;17.07;9.57;;;0.00;80.40;;;;;;6246385;28;20242;-80
2024/01/28 06:50:24;;;;;;;16.33;9.70;;;0.00;80.40;;;;;;6241727;28;20247;-79
2024/01/28 06:53:27;;;;;;;18.00;10.80;;;0.00;80.30;;;;;;6236681;28;20673;-80
2024/01/28 06:56:30;;;;;;;13.97;10.13;;;0.00;80.30;;;;;;6241331;28;20258;-77
2024/01/28 06:59:36;;;;;;;12.57;10.73;;;0.00;80.30;;;;;;6245598;28;20595;-79
2024/01/28 07:02:39;;;;;;;18.27;10.87;;;0.00;80.40;;;;;;6234143;28;20246;-79
2024/01/28 07:05:42;;;;;;;16.70;10.57;;;0.00;80.40;;;;;;6218392;28;20235;-79
2024/01/28 07:08:45;;;;;;;19.93;10.30;;;0.00;80.40;;;;;;6221207;28;20231;-81
2024/01/28 07:11:48;;;;;;;14.83;9.87;;;0.00;80.10;;;;;;6213828;28;20711;-80
2024/01/28 07:14:53;;;;;;;13.47;9.80;;;0.00;80.00;;;;;;6212427;28;20239;-81
2024/01/28 07:17:56;;;;;;;14.53;9.93;;;0.00;79.80;;;;;;6224139;28;20239;-80
2024/01/28 07:21:01;;;;;;;13.30;9.63;;;0.00;79.90;;;;;;6230865;28;20246;-80
2024/01/28 07:24:05;;;;;;;14.33;10.87;;;0.00;80.00;;;;;;6221433;28;20231;-80
2024/01/28 07:27:11;;;;;;;13.43;10.57;;;0.00;80.10;;;;;;6246371;28;20317;-80
2024/01/28 07:30:16;;;;;;;17.07;11.33;;;0.00;80.30;;;;;;6251086;28;20295;-79
2024/01/28 07:33:19;;;;;;;22.90;11.50;;;0.00;80.00;;;;;;6242501;28;20292;-81
2024/01/28 07:36:23;;;;;;;19.60;11.37;;;0.00;79.90;;;;;;6233773;28;20246;-80
2024/01/28 07:39:27;;;;;;;24.33;13.73;;;0.00;79.80;;;;;;6237573;28;20754;-82
2024/01/28 07:42:30;;;;;;;26.47;11.50;;;0.00;79.70;;;;;;6244430;28;20249;-79
2024/01/28 07:45:37;;;;;;;24.03;11.93;;;0.00;80.00;;;;;;6224776;28;20239;-80
2024/01/28 07:48:40;;;;;;;19.43;12.23;;;0.10;79.90;;;;;;6205366;28;20323;-78
2024/01/28 07:51:43;;;;;;;20.70;12.17;;;0.20;79.70;;;;;;6212699;28;20232;-80
2024/01/28 07:54:47;;;;;;;19.33;11.20;;;0.20;79.60;;;;;;6234187;28;20234;-79
2024/01/28 07:57:50;;;;;;;21.40;12.70;;;0.30;79.70;;;;;;6236805;28;20314;-80
2024/01/28 08:00:54;;;;;;;25.73;13.23;;;0.30;79.50;;;;;;6247670;28;21111;-82
2024/01/28 08:04:11;;;;;;;19.60;11.13;;;0.40;79.60;;;;;;6233452;28;20296;-80
2024/01/28 08:07:15;;;;;;;22.47;13.20;;;0.50;79.60;;;;;;6235686;28;20606;-80
2024/01/28 08:10:19;;;;;;;19.97;12.17;;;0.50;79.50;;;;;;6236086;28;20239;-79
2024/01/28 08:13:22;;;;;;;17.53;12.40;;;0.60;79.60;;;;;;6235553;28;20234;-78
2024/01/28 08:16:28;;;;;;;20.33;11.67;;;0.70;79.30;;;;;;6236937;28;20234;-80
2024/01/28 08:19:31;;;;;;;18.73;11.07;;;0.80;79.00;;;;;;6242926;28;20928;-80
2024/01/28 08:22:35;;;;;;;13.37;10.20;;;1.00;78.70;;;;;;6239043;28;20238;-78
2024/01/28 08:25:38;;;;;;;16.23;11.20;;;1.00;78.30;;;;;;6244027;28;20868;-78
2024/01/28 08:28:41;;;;;;;20.63;11.23;;;1.00;78.10;;;;;;6244175;28;20335;-81
2024/01/28 08:31:46;;;;;;;20.10;11.93;;;1.00;77.70;;;;;;6240807;28;20234;-80
2024/01/28 08:34:51;;;;;;;15.07;11.00;;;1.00;77.30;;;;;;6240127;28;20656;-80
2024/01/28 08:37:54;;;;;;;19.40;11.70;;;1.10;77.20;;;;;;6239809;28;20249;-82
2024/01/28 08:40:58;;;;;;;12.73;10.30;;;1.20;77.00;;;;;;6244088;28;20747;-80
2024/01/28 08:44:01;;;;;;;14.97;11.10;;;1.40;77.50;;;;;;6237399;28;20226;-80
2024/01/28 08:47:05;;;;;;;15.93;10.87;;;1.60;77.00;;;;;;6243010;28;20320;-80
2024/01/28 08:50:09;;;;;;;17.17;10.87;;;1.60;76.40;;;;;;6241554;28;20361;-80
2024/01/28 08:53:12;;;;;;;15.10;11.30;;;1.70;75.80;;;;;;6244336;28;20230;-79
2024/01/28 08:56:15;;;;;;;19.53;11.97;;;1.80;75.70;;;;;;6243132;28;20235;-80
2024/01/28 08:59:20;;;;;;;17.10;11.47;;;2.00;75.70;;;;;;6237535;28;20230;-81
2024/01/28 09:02:24;;;;;;;19.90;10.90;;;2.10;75.10;;;;;;6242726;28;20274;-81
2024/01/28 09:05:27;;;;;;;19.47;12.27;;;2.20;74.40;;;;;;6241634;28;20247;-79
2024/01/28 09:08:30;;;;;;;19.70;11.43;;;2.20;74.60;;;;;;6244642;28;20276;-80
2024/01/28 09:11:35;;;;;;;12.10;10.87;;;2.30;74.40;;;;;;6243293;28;20753;-79
2024/01/28 09:14:38;;;;;;;17.77;11.87;;;2.50;74.20;;;;;;6241233;28;20360;-79
2024/01/28 09:17:43;;;;;;;17.23;11.07;;;2.70;73.60;;;;;;6239745;28;20234;-80
2024/01/28 09:20:46;;;;;;;15.90;11.73;;;2.90;72.70;;;;;;6220316;28;20234;-79
2024/01/28 09:23:49;;;;;;;18.87;11.37;;;3.00;72.30;;;;;;6240182;28;20234;-80
2024/01/28 09:26:52;;;;;;;14.33;10.50;;;3.10;72.90;;;;;;6211905;28;20654;-79
2024/01/28 09:29:55;;;;;;;12.90;10.67;;;3.30;72.10;;;;;;6237983;28;20230;-79
2024/01/28 09:32:59;;;;;;;13.70;10.40;;;3.40;72.20;;;;;;6238829;28;20798;-79
2024/01/28 09:36:03;;;;;;;13.03;10.10;;;3.50;71.20;;;;;;6237536;28;20292;-79
2024/01/28 09:39:06;;;;;;;18.87;11.23;;;3.60;70.60;;;;;;6231056;28;20235;-78
2024/01/28 09:42:12;;;;;;;14.90;11.10;;;3.70;70.70;;;;;;6231063;28;20230;-82
2024/01/28 09:45:17;;;;;;;19.57;11.33;;;3.90;70.50;;;;;;6239131;28;20269;-78
2024/01/28 09:48:21;;;;;;;17.37;11.53;;;4.00;70.30;;;;;;6232827;28;20242;-80
2024/01/28 09:51:27;;;;;;;13.03;9.77;;;4.20;69.60;;;;;;6238164;28;20231;-77
2024/01/28 09:54:30;;;;;;;13.37;9.40;;;4.30;69.20;;;;;;6235020;28;20755;-74
2024/01/28 09:57:34;;;;;;;14.23;9.97;;;4.50;69.30;;;;;;6233556;28;20239;-79
2024/01/28 10:00:37;;;;;;;12.90;9.60;;;4.70;68.40;;;;;;6234905;28;20295;-81
2024/01/28 10:03:43;;;;;;;14.07;9.87;;;4.80;68.60;;;;;;6239621;28;20747;-79
2024/01/28 10:06:47;;;;;;;11.67;10.00;;;5.00;67.80;;;;;;6238368;28;20436;-80
2024/01/28 10:09:51;;;;;;;16.30;10.70;;;5.00;67.40;;;;;;6242863;28;20309;-79
2024/01/28 10:12:55;;;;;;;14.30;11.40;;;5.20;67.10;;;;;;6239043;28;20226;-79
2024/01/28 10:15:59;;;;;;;15.47;10.37;;;5.30;67.00;;;;;;6237619;28;20237;-78
2024/01/28 10:19:05;;;;;;;18.27;11.33;;;5.40;66.50;;;;;;6236932;28;20241;-78
2024/01/28 10:22:08;;;;;;;19.73;10.30;;;5.30;66.20;;;;;;6236280;28;20316;-79
2024/01/28 10:25:16;;;;;;;16.93;10.57;;;5.10;66.60;;;;;;6229658;28;20803;-79
2024/01/28 10:28:19;;;;;;;14.80;9.07;;;5.10;66.80;;;;;;6236530;28;20737;-81
2024/01/28 10:31:23;;;;;;;13.70;10.07;;;5.50;66.00;;;;;;6240043;28;20242;-78
2024/01/28 10:34:28;;;;;;;11.93;8.83;;;5.30;65.90;;;;;;6233013;28;20234;-79
2024/01/28 10:37:33;;;;;;;17.60;9.70;;;5.50;65.60;;;;;;6238184;28;20246;-79
2024/01/28 10:40:39;;;;;;;15.33;9.10;;;5.70;65.20;;;;;;6237679;28;20301;-80
2024/01/28 10:43:46;;;;;;;13.13;8.90;;;5.80;65.00;;;;;;6238625;28;20845;-77
2024/01/28 10:46:54;;;;;;;12.37;8.30;;;6.00;64.70;;;;;;6216500;28;20763;-80
2024/01/28 10:50:02;;;;;;;13.20;8.77;;;6.10;64.80;;;;;;6220353;28;20246;-77
2024/01/28 10:53:06;;;;;;;12.57;8.30;;;6.30;64.00;;;;;;6238069;28;20238;-80
2024/01/28 10:56:10;;;;;;;16.43;8.97;;;6.20;64.00;;;;;;6236316;28;20242;-80
2024/01/28 10:59:14;;;;;;;12.53;7.80;;;6.40;63.90;;;;;;6236494;28;20712;-78
2024/01/28 11:02:19;;;;;;;12.80;8.60;;;6.70;63.10;;;;;;6235831;28;20230;-79
2024/01/28 11:05:25;;;;;;;10.23;8.50;;;6.80;62.70;;;;;;6236825;28;20255;-78
2024/01/28 11:08:28;;;;;;;10.73;8.43;;;6.90;62.30;;;;;;6238166;28;20238;-78
2024/01/28 11:11:31;;;;;;;12.43;8.10;;;7.00;62.00;;;;;;6233413;28;20231;-81
2024/01/28 11:14:35;;;;;;;13.77;8.40;;;7.00;61.70;;;;;;6236070;28;20242;-81
2024/01/28 11:17:38;;;;;;;8.33;7.50;;;7.00;61.70;;;;;;6230816;28;20237;-77
2024/01/28 11:20:43;;;;;;;13.37;8.13;;;7.00;61.90;;;;;;6201131;28;20277;-80
2024/01/28 11:23:48;;;;;;;13.53;8.20;;;7.10;61.80;;;;;;6210429;28;20657;-80
2024/01/28 11:26:56;;;;;;;14.87;8.63;;;7.20;61.70;;;;;;6211395;28;20242;-79
2024/01/28 11:29:59;;;;;;;14.03;7.40;;;7.20;61.70;;;;;;6205156;28;20227;-80
2024/01/28 11:33:10;;;;;;;15.67;8.10;;;7.00;61.80;;;;;;6210755;28;20270;-81
2024/01/28 11:36:25;;;;;;;15.53;7.60;;;7.00;61.80;;;;;;6208465;28;20240;-82
2024/01/28 11:39:39;;;;;;;12.27;7.17;;;7.00;61.80;;;;;;6212318;28;20223;-79
2024/01/28 11:42:43;;;;;;;14.87;8.20;;;7.20;61.80;;;;;;6211110;28;20274;-77
2024/01/28 11:45:46;;;;;;;10.67;7.00;;;7.20;61.60;;;;;;6206924;28;20240;-78
2024/01/28 11:48:49;;;;;;;10.23;7.20;;;7.20;61.40;;;;;;6210198;28;20242;-79
2024/01/28 11:51:54;;;;;;;17.07;9.73;;;7.20;61.40;;;;;;6210486;28;20301;-78
2024/01/28 11:54:58;;;;;;;23.33;8.70;;;7.20;61.70;;;;;;6201694;28;20239;-79
2024/01/28 11:58:02;;;;;;;13.53;7.63;;;7.00;62.50;;;;;;6209502;28;20699;-79
2024/01/28 12:01:05;;;;;;;11.77;7.50;;;7.10;61.80;;;;;;6208500;28;20839;-78
2024/01/28 12:04:10;;;;;;;11.83;7.50;;;7.20;61.30;;;;;;6208902;28;20262;-80
2024/01/28 12:07:15;;;;;;;10.03;8.07;;;7.20;61.30;;;;;;6205107;28;20275;-81
2024/01/28 12:10:18;;;;;;;13.80;7.63;;;7.40;61.20;;;;;;6211634;28;20252;-80
2024/01/28 12:13:22;;;;;;;10.80;7.13;;;7.50;61.10;;;;;;6210895;28;20234;-79
2024/01/28 12:16:26;;;;;;;8.90;6.60;;;7.50;61.00;;;;;;6205709;28;20239;-79
2024/01/28 12:19:29;;;;;;;14.33;7.33;;;7.50;60.50;;;;;;6211083;28;20876;-79
2024/01/28 12:22:38;;;;;;;14.83;7.10;;;7.50;60.50;;;;;;6208120;28;20243;-80
2024/01/28 12:25:41;;;;;;;12.77;7.70;;;7.40;60.80;;;;;;6209156;28;20247;-79
2024/01/28 12:28:46;;;;;;;17.57;7.17;;;7.30;61.20;;;;;;6209646;28;20318;-78
2024/01/28 12:31:50;;;;;;;9.93;6.83;;;7.40;60.70;;;;;;6210423;28;20228;-81
2024/01/28 12:34:54;;;;;;;13.33;7.10;;;7.60;60.30;;;;;;6206517;28;21399;-81
2024/01/28 12:37:58;;;;;;;11.37;6.80;;;7.60;59.80;;;;;;6211808;28;20730;-78
2024/01/28 12:41:01;;;;;;;9.70;6.20;;;7.80;59.60;;;;;;6213901;28;20239;-78
2024/01/28 12:44:05;;;;;;;9.47;6.77;;;7.90;59.40;;;;;;6208665;28;20500;-80
2024/01/28 12:47:10;;;;;;;11.20;6.93;;;7.80;59.40;;;;;;6210581;28;20533;-79
2024/01/28 12:50:13;;;;;;;18.07;7.37;;;7.60;59.60;;;;;;6197822;28;20247;-81
2024/01/28 12:53:18;;;;;;;9.83;6.80;;;7.70;59.70;;;;;;6198488;28;20228;-79
2024/01/28 12:56:21;;;;;;;9.60;6.50;;;7.80;59.40;;;;;;6208286;28;20880;-79
2024/01/28 12:59:24;;;;;;;8.97;6.30;;;8.00;59.30;;;;;;6206797;28;20239;-80
2024/01/28 13:02:28;;;;;;;8.17;6.00;;;7.90;58.90;;;;;;6211802;28;20742;-78
2024/01/28 13:05:31;;;;;;;14.03;6.27;;;8.00;58.80;;;;;;6216998;28;20305;-77
2024/01/28 13:08:36;;;;;;;9.23;6.03;;;8.00;59.30;;;;;;6224533;28;20365;-79
2024/01/28 13:11:39;;;;;;;13.40;5.80;;;8.10;59.20;;;;;;6240220;28;20845;-78
2024/01/28 13:14:42;;;;;;;6.83;6.07;;;8.20;59.00;;;;;;6235362;28;20239;-78
2024/01/28 13:17:45;;;;;;;11.10;5.77;;;8.20;59.10;;;;;;6239583;28;20288;-80
2024/01/28 13:20:48;;;;;;;14.63;7.30;;;8.20;58.70;;;;;;6237879;28;20230;-80
2024/01/28 13:23:53;;;;;;;7.27;6.57;;;8.30;58.50;;;;;;6234328;28;20265;-79
2024/01/28 13:26:56;;;;;;;9.70;5.63;;;8.20;59.00;;;;;;6236336;28;20315;-80
2024/01/28 13:30:00;;;;;;;9.93;5.73;;;8.30;58.70;;;;;;6238816;28;20308;-79
2024/01/28 13:33:04;;;;;;;8.73;6.03;;;8.30;58.50;;;;;;6236911;28;20711;-79
2024/01/28 13:36:08;;;;;;;9.33;5.97;;;8.30;58.20;;;;;;6235577;28;20287;-78
2024/01/28 13:39:13;;;;;;;7.57;6.07;;;8.20;57.60;;;;;;6238073;28;20321;-79
2024/01/28 13:42:16;;;;;;;9.00;5.83;;;8.10;57.50;;;;;;6230207;28;20372;-80
2024/01/28 13:45:19;;;;;;;5.33;4.73;;;8.10;57.50;;;;;;6238537;28;20254;-79
2024/01/28 13:48:22;;;;;;;7.17;5.87;;;8.00;56.90;;;;;;6237385;28;20239;-78
2024/01/28 13:51:26;;;;;;;11.27;5.60;;;8.10;57.00;;;;;;6232544;28;20251;-78
2024/01/28 13:54:31;;;;;;;6.90;5.10;;;8.10;57.40;;;;;;6212938;28;20317;-79
2024/01/28 13:57:34;;;;;;;9.43;5.57;;;8.00;57.70;;;;;;6232837;28;20235;-78
2024/01/28 14:00:37;;;;;;;10.40;5.37;;;8.00;57.30;;;;;;6234751;28;20317;-80
2024/01/28 14:03:40;;;;;;;7.03;5.50;;;8.00;57.80;;;;;;6238681;28;20388;-79
2024/01/28 14:06:44;;;;;;;8.80;4.93;;;8.00;57.30;;;;;;6235865;28;20235;-77
2024/01/28 14:09:48;;;;;;;8.43;5.73;;;8.00;57.50;;;;;;6237871;28;20287;-80
2024/01/28 14:12:52;;;;;;;7.73;5.07;;;8.00;57.20;;;;;;6238342;28;20849;-80
2024/01/28 14:15:56;;;;;;;6.83;5.53;;;8.00;57.10;;;;;;6235276;28;20592;-78
2024/01/28 14:18:59;;;;;;;7.80;4.73;;;8.00;57.10;;;;;;6236706;28;20637;-78
2024/01/28 14:22:02;;;;;;;13.30;5.53;;;8.00;56.40;;;;;;6234767;28;20815;-78
2024/01/28 14:25:08;;;;;;;9.30;5.87;;;8.00;56.40;;;;;;6237366;28;20308;-79
2024/01/28 14:28:11;;;;;;;6.70;5.40;;;7.80;56.40;;;;;;6229444;28;20765;-80
2024/01/28 14:31:14;;;;;;;5.80;5.30;;;7.70;56.60;;;;;;6219402;28;20296;-77
2024/01/28 14:34:17;;;;;;;5.77;5.27;;;7.70;56.70;;;;;;6236879;28;20733;-80
2024/01/28 14:37:20;;;;;;;5.47;4.97;;;7.60;56.90;;;;;;6231027;28;20376;-79
2024/01/28 14:40:25;;;;;;;5.90;5.17;;;7.60;57.20;;;;;;6219595;28;20757;-78
2024/01/28 14:43:28;;;;;;;9.47;6.07;;;7.50;56.50;;;;;;6235541;28;20239;-77
2024/01/28 14:46:31;;;;;;;7.80;5.40;;;7.50;56.20;;;;;;6229643;28;20598;-78
2024/01/28 14:49:36;;;;;;;8.00;5.97;;;7.50;55.80;;;;;;6232481;28;20258;-79
2024/01/28 14:52:39;;;;;;;8.90;5.97;;;7.50;56.20;;;;;;6235822;28;20227;-80
2024/01/28 14:55:44;;;;;;;11.70;5.80;;;7.40;56.50;;;;;;6237078;28;20285;-80
2024/01/28 14:58:47;;;;;;;8.73;6.03;;;7.20;57.00;;;;;;6234391;28;20233;-78
2024/01/28 15:01:50;;;;;;;6.50;5.40;;;7.10;56.80;;;;;;6235216;28;20235;-77
2024/01/28 15:04:53;;;;;;;6.63;5.83;;;7.00;57.10;;;;;;6234649;28;20253;-77
2024/01/28 15:07:57;;;;;;;10.50;6.33;;;7.00;57.60;;;;;;6236939;28;20239;-81
2024/01/28 15:11:02;;;;;;;10.37;6.00;;;6.90;58.20;;;;;;6236581;28;20242;-80
2024/01/28 15:14:05;;;;;;;6.60;5.67;;;6.80;58.60;;;;;;6231873;28;20263;-81
2024/01/28 15:17:09;;;;;;;7.53;6.03;;;6.80;59.00;;;;;;6235342;28;20287;-77
2024/01/28 15:20:17;;;;;;;6.47;5.87;;;6.70;59.50;;;;;;6236030;28;20235;-79
2024/01/28 15:23:20;;;;;;;6.87;6.17;;;6.70;59.80;;;;;;6230598;28;20242;-79
2024/01/28 15:26:24;;;;;;;9.87;7.10;;;6.60;60.50;;;;;;6231056;28;20247;-78
2024/01/28 15:29:28;;;;;;;6.93;6.33;;;6.50;60.90;;;;;;6227437;28;20371;-78
2024/01/28 15:32:31;;;;;;;8.87;6.40;;;6.50;61.20;;;;;;6234278;28;20240;-78
2024/01/28 15:35:34;;;;;;;14.40;6.83;;;6.40;61.20;;;;;;6222065;28;20331;-78
2024/01/28 15:38:37;;;;;;;12.87;6.93;;;6.40;61.30;;;;;;6230884;28;20241;-77
2024/01/28 15:41:42;;;;;;;9.73;5.70;;;6.30;61.60;;;;;;6230140;28;20237;-78
2024/01/28 15:44:45;;;;;;;7.47;6.13;;;6.20;61.80;;;;;;6209298;28;20296;-78
2024/01/28 15:47:48;;;;;;;6.80;6.10;;;6.10;62.20;;;;;;6227094;28;20268;-79
2024/01/28 15:50:52;;;;;;;13.57;6.63;;;6.10;62.30;;;;;;6229468;28;20316;-80
2024/01/28 15:53:55;;;;;;;7.03;6.43;;;6.00;62.30;;;;;;6238853;28;20235;-79
2024/01/28 15:57:00;;;;;;;8.13;7.07;;;5.90;62.50;;;;;;6231203;28;20968;-79
2024/01/28 16:00:04;;;;;;;8.80;6.87;;;5.90;62.50;;;;;;6196485;28;20417;-81